sensor_id;sensor_type;location;lat;lon;timestamp;P1;durP1;ratioP1;P2;durP2;ratioP2
56893;SDS011;43392;50.078;13.704;2022-07-29T00:00:23;5.13;;;1.70;;
56893;SDS011;43392;50.078;13.704;2022-07-29T00:02:49;5.47;;;1.80;;
56893;SDS011;43392;50.078;13.704;2022-07-29T00:05:16;8.63;;;1.98;;
56893;SDS011;43392;50.078;13.704;2022-07-29T00:07:42;7.13;;;1.92;;
56893;SDS011;43392;50.078;13.704;2022-07-29T00:10:09;5.85;;;2.00;;
56893;SDS011;43392;50.078;13.704;2022-07-29T00:12:35;9.57;;;2.13;;
56893;SDS011;43392;50.078;13.704;2022-07-29T00:15:04;4.95;;;1.90;;
56893;SDS011;43392;50.078;13.704;2022-07-29T00:17:32;8.83;;;1.93;;
56893;SDS011;43392;50.078;13.704;2022-07-29T00:19:59;5.20;;;1.92;;
56893;SDS011;43392;50.078;13.704;2022-07-29T00:22:25;5.40;;;2.00;;
56893;SDS011;43392;50.078;13.704;2022-07-29T00:24:52;4.43;;;1.90;;
56893;SDS011;43392;50.078;13.704;2022-07-29T00:27:18;8.45;;;2.40;;
56893;SDS011;43392;50.078;13.704;2022-07-29T00:29:45;8.05;;;1.85;;
56893;SDS011;43392;50.078;13.704;2022-07-29T00:32:13;4.75;;;1.70;;
56893;SDS011;43392;50.078;13.704;2022-07-29T00:34:40;11.82;;;2.20;;
56893;SDS011;43392;50.078;13.704;2022-07-29T00:37:35;6.53;;;2.20;;
56893;SDS011;43392;50.078;13.704;2022-07-29T00:40:02;8.75;;;2.15;;
56893;SDS011;43392;50.078;13.704;2022-07-29T00:42:29;9.02;;;2.40;;
56893;SDS011;43392;50.078;13.704;2022-07-29T00:44:55;5.63;;;2.10;;
56893;SDS011;43392;50.078;13.704;2022-07-29T00:47:23;9.85;;;1.90;;
56893;SDS011;43392;50.078;13.704;2022-07-29T00:49:50;10.55;;;2.58;;
56893;SDS011;43392;50.078;13.704;2022-07-29T00:52:16;11.27;;;2.53;;
56893;SDS011;43392;50.078;13.704;2022-07-29T00:54:43;7.97;;;2.00;;
56893;SDS011;43392;50.078;13.704;2022-07-29T00:57:10;6.00;;;1.95;;
56893;SDS011;43392;50.078;13.704;2022-07-29T00:59:37;4.90;;;2.17;;
56893;SDS011;43392;50.078;13.704;2022-07-29T01:02:04;8.57;;;2.30;;
56893;SDS011;43392;50.078;13.704;2022-07-29T01:04:32;6.07;;;2.13;;
56893;SDS011;43392;50.078;13.704;2022-07-29T01:06:59;6.88;;;2.00;;
56893;SDS011;43392;50.078;13.704;2022-07-29T01:09:27;5.15;;;2.13;;
56893;SDS011;43392;50.078;13.704;2022-07-29T01:11:54;7.63;;;2.17;;
56893;SDS011;43392;50.078;13.704;2022-07-29T01:14:21;7.97;;;2.38;;
56893;SDS011;43392;50.078;13.704;2022-07-29T01:16:51;8.15;;;2.17;;
56893;SDS011;43392;50.078;13.704;2022-07-29T01:19:31;6.80;;;2.13;;
56893;SDS011;43392;50.078;13.704;2022-07-29T01:22:18;9.48;;;2.05;;
56893;SDS011;43392;50.078;13.704;2022-07-29T01:27:45;5.35;;;2.20;;
56893;SDS011;43392;50.078;13.704;2022-07-29T01:30:23;12.52;;;2.33;;
56893;SDS011;43392;50.078;13.704;2022-07-29T01:32:53;7.97;;;2.20;;
56893;SDS011;43392;50.078;13.704;2022-07-29T01:35:23;7.07;;;2.20;;
56893;SDS011;43392;50.078;13.704;2022-07-29T01:37:55;7.57;;;2.42;;
56893;SDS011;43392;50.078;13.704;2022-07-29T01:40:28;5.60;;;2.03;;
56893;SDS011;43392;50.078;13.704;2022-07-29T01:43:01;7.57;;;2.40;;
56893;SDS011;43392;50.078;13.704;2022-07-29T01:45:37;9.15;;;2.42;;
56893;SDS011;43392;50.078;13.704;2022-07-29T01:48:11;7.15;;;2.05;;
56893;SDS011;43392;50.078;13.704;2022-07-29T01:50:45;8.38;;;2.30;;
56893;SDS011;43392;50.078;13.704;2022-07-29T01:53:17;5.50;;;2.13;;
56893;SDS011;43392;50.078;13.704;2022-07-29T01:55:51;7.22;;;2.28;;
56893;SDS011;43392;50.078;13.704;2022-07-29T01:58:19;10.82;;;2.75;;
56893;SDS011;43392;50.078;13.704;2022-07-29T02:00:49;7.38;;;2.20;;
56893;SDS011;43392;50.078;13.704;2022-07-29T02:03:17;8.73;;;2.33;;
56893;SDS011;43392;50.078;13.704;2022-07-29T02:05:45;9.07;;;2.30;;
56893;SDS011;43392;50.078;13.704;2022-07-29T02:08:14;7.82;;;2.60;;
56893;SDS011;43392;50.078;13.704;2022-07-29T02:10:42;7.38;;;2.50;;
56893;SDS011;43392;50.078;13.704;2022-07-29T02:13:11;8.15;;;2.13;;
56893;SDS011;43392;50.078;13.704;2022-07-29T02:15:39;5.60;;;2.00;;
56893;SDS011;43392;50.078;13.704;2022-07-29T02:18:11;9.57;;;2.05;;
56893;SDS011;43392;50.078;13.704;2022-07-29T02:20:40;7.00;;;2.17;;
56893;SDS011;43392;50.078;13.704;2022-07-29T02:23:10;7.70;;;2.28;;
56893;SDS011;43392;50.078;13.704;2022-07-29T02:25:38;5.75;;;2.03;;
56893;SDS011;43392;50.078;13.704;2022-07-29T02:28:07;7.07;;;2.80;;
56893;SDS011;43392;50.078;13.704;2022-07-29T02:30:35;8.65;;;2.50;;
56893;SDS011;43392;50.078;13.704;2022-07-29T02:33:05;9.43;;;2.25;;
56893;SDS011;43392;50.078;13.704;2022-07-29T02:35:35;9.70;;;2.30;;
56893;SDS011;43392;50.078;13.704;2022-07-29T02:38:03;8.05;;;2.38;;
56893;SDS011;43392;50.078;13.704;2022-07-29T02:40:47;9.90;;;2.50;;
56893;SDS011;43392;50.078;13.704;2022-07-29T02:43:15;10.00;;;2.55;;
56893;SDS011;43392;50.078;13.704;2022-07-29T02:45:45;12.38;;;2.30;;
56893;SDS011;43392;50.078;13.704;2022-07-29T02:48:17;12.52;;;2.10;;
56893;SDS011;43392;50.078;13.704;2022-07-29T02:50:50;5.70;;;2.38;;
56893;SDS011;43392;50.078;13.704;2022-07-29T02:53:22;8.50;;;2.60;;
56893;SDS011;43392;50.078;13.704;2022-07-29T02:55:51;8.23;;;2.10;;
56893;SDS011;43392;50.078;13.704;2022-07-29T02:58:24;12.10;;;2.20;;
56893;SDS011;43392;50.078;13.704;2022-07-29T03:00:55;8.27;;;2.17;;
56893;SDS011;43392;50.078;13.704;2022-07-29T03:03:24;7.45;;;2.50;;
56893;SDS011;43392;50.078;13.704;2022-07-29T03:05:56;5.22;;;1.92;;
56893;SDS011;43392;50.078;13.704;2022-07-29T03:08:25;6.55;;;2.22;;
56893;SDS011;43392;50.078;13.704;2022-07-29T03:10:53;9.32;;;2.33;;
56893;SDS011;43392;50.078;13.704;2022-07-29T03:13:21;6.63;;;2.45;;
56893;SDS011;43392;50.078;13.704;2022-07-29T03:15:49;7.43;;;2.55;;
56893;SDS011;43392;50.078;13.704;2022-07-29T03:18:16;10.18;;;2.70;;
56893;SDS011;43392;50.078;13.704;2022-07-29T03:20:43;11.65;;;2.15;;
56893;SDS011;43392;50.078;13.704;2022-07-29T03:23:11;9.48;;;2.38;;
56893;SDS011;43392;50.078;13.704;2022-07-29T03:25:37;6.35;;;2.33;;
56893;SDS011;43392;50.078;13.704;2022-07-29T03:28:04;8.07;;;2.53;;
56893;SDS011;43392;50.078;13.704;2022-07-29T03:30:31;14.95;;;2.50;;
56893;SDS011;43392;50.078;13.704;2022-07-29T03:32:57;10.60;;;2.85;;
56893;SDS011;43392;50.078;13.704;2022-07-29T03:35:24;12.57;;;2.67;;
56893;SDS011;43392;50.078;13.704;2022-07-29T03:37:50;5.05;;;2.28;;
56893;SDS011;43392;50.078;13.704;2022-07-29T03:40:19;6.35;;;2.15;;
56893;SDS011;43392;50.078;13.704;2022-07-29T03:42:49;7.72;;;2.70;;
56893;SDS011;43392;50.078;13.704;2022-07-29T03:45:18;7.15;;;2.20;;
56893;SDS011;43392;50.078;13.704;2022-07-29T03:47:47;8.93;;;2.75;;
56893;SDS011;43392;50.078;13.704;2022-07-29T03:50:16;12.40;;;2.97;;
56893;SDS011;43392;50.078;13.704;2022-07-29T03:52:45;7.32;;;2.42;;
56893;SDS011;43392;50.078;13.704;2022-07-29T03:55:12;5.63;;;2.10;;
56893;SDS011;43392;50.078;13.704;2022-07-29T03:57:41;5.38;;;2.20;;
56893;SDS011;43392;50.078;13.704;2022-07-29T04:00:10;8.02;;;2.35;;
56893;SDS011;43392;50.078;13.704;2022-07-29T04:02:37;8.10;;;2.60;;
56893;SDS011;43392;50.078;13.704;2022-07-29T04:05:05;9.43;;;2.42;;
56893;SDS011;43392;50.078;13.704;2022-07-29T04:07:37;5.40;;;2.35;;
56893;SDS011;43392;50.078;13.704;2022-07-29T04:10:04;7.80;;;2.67;;
56893;SDS011;43392;50.078;13.704;2022-07-29T04:12:31;8.77;;;2.22;;
56893;SDS011;43392;50.078;13.704;2022-07-29T04:14:59;10.02;;;2.67;;
56893;SDS011;43392;50.078;13.704;2022-07-29T04:17:26;9.07;;;2.97;;
56893;SDS011;43392;50.078;13.704;2022-07-29T04:19:53;8.48;;;2.60;;
56893;SDS011;43392;50.078;13.704;2022-07-29T04:22:20;8.93;;;2.67;;
56893;SDS011;43392;50.078;13.704;2022-07-29T04:24:46;13.07;;;3.00;;
56893;SDS011;43392;50.078;13.704;2022-07-29T04:27:13;6.15;;;2.33;;
56893;SDS011;43392;50.078;13.704;2022-07-29T04:29:39;9.48;;;2.85;;
56893;SDS011;43392;50.078;13.704;2022-07-29T04:32:07;8.25;;;3.05;;
56893;SDS011;43392;50.078;13.704;2022-07-29T04:34:34;6.20;;;2.60;;
56893;SDS011;43392;50.078;13.704;2022-07-29T04:37:01;6.15;;;3.05;;
56893;SDS011;43392;50.078;13.704;2022-07-29T04:39:27;7.40;;;2.63;;
56893;SDS011;43392;50.078;13.704;2022-07-29T04:41:54;9.52;;;2.78;;
56893;SDS011;43392;50.078;13.704;2022-07-29T04:44:21;9.55;;;3.03;;
56893;SDS011;43392;50.078;13.704;2022-07-29T04:46:47;11.40;;;3.20;;
56893;SDS011;43392;50.078;13.704;2022-07-29T04:49:15;7.80;;;3.30;;
56893;SDS011;43392;50.078;13.704;2022-07-29T04:51:42;9.50;;;3.30;;
56893;SDS011;43392;50.078;13.704;2022-07-29T04:54:08;9.30;;;2.90;;
56893;SDS011;43392;50.078;13.704;2022-07-29T04:56:35;6.57;;;2.67;;
56893;SDS011;43392;50.078;13.704;2022-07-29T04:59:02;12.02;;;3.45;;
56893;SDS011;43392;50.078;13.704;2022-07-29T05:01:28;7.07;;;3.25;;
56893;SDS011;43392;50.078;13.704;2022-07-29T05:03:55;9.48;;;3.00;;
56893;SDS011;43392;50.078;13.704;2022-07-29T05:06:23;9.05;;;3.30;;
56893;SDS011;43392;50.078;13.704;2022-07-29T05:08:49;8.13;;;3.40;;
56893;SDS011;43392;50.078;13.704;2022-07-29T05:11:16;8.48;;;2.92;;
56893;SDS011;43392;50.078;13.704;2022-07-29T05:13:43;13.75;;;3.75;;
56893;SDS011;43392;50.078;13.704;2022-07-29T05:16:10;8.85;;;3.65;;
56893;SDS011;43392;50.078;13.704;2022-07-29T05:18:36;8.70;;;3.10;;
56893;SDS011;43392;50.078;13.704;2022-07-29T05:21:03;7.28;;;3.08;;
56893;SDS011;43392;50.078;13.704;2022-07-29T05:23:31;8.70;;;3.53;;
56893;SDS011;43392;50.078;13.704;2022-07-29T05:25:57;13.23;;;3.60;;
56893;SDS011;43392;50.078;13.704;2022-07-29T05:28:24;6.85;;;3.30;;
56893;SDS011;43392;50.078;13.704;2022-07-29T05:30:50;9.77;;;3.63;;
56893;SDS011;43392;50.078;13.704;2022-07-29T05:33:17;11.48;;;3.50;;
56893;SDS011;43392;50.078;13.704;2022-07-29T05:35:44;7.10;;;4.10;;
56893;SDS011;43392;50.078;13.704;2022-07-29T05:38:10;14.60;;;5.00;;
56893;SDS011;43392;50.078;13.704;2022-07-29T05:40:38;9.63;;;3.67;;
56893;SDS011;43392;50.078;13.704;2022-07-29T05:43:05;11.60;;;3.80;;
56893;SDS011;43392;50.078;13.704;2022-07-29T05:45:31;12.10;;;3.78;;
56893;SDS011;43392;50.078;13.704;2022-07-29T05:47:58;10.77;;;3.75;;
56893;SDS011;43392;50.078;13.704;2022-07-29T05:50:25;12.23;;;4.03;;
56893;SDS011;43392;50.078;13.704;2022-07-29T05:52:51;7.25;;;3.72;;
56893;SDS011;43392;50.078;13.704;2022-07-29T05:55:18;7.85;;;3.60;;
56893;SDS011;43392;50.078;13.704;2022-07-29T05:57:46;8.02;;;3.20;;
56893;SDS011;43392;50.078;13.704;2022-07-29T06:00:13;10.07;;;4.20;;
56893;SDS011;43392;50.078;13.704;2022-07-29T06:02:39;11.80;;;3.90;;
56893;SDS011;43392;50.078;13.704;2022-07-29T06:05:06;22.60;;;4.15;;
56893;SDS011;43392;50.078;13.704;2022-07-29T06:07:33;10.32;;;3.50;;
56893;SDS011;43392;50.078;13.704;2022-07-29T06:10:00;10.45;;;3.65;;
56893;SDS011;43392;50.078;13.704;2022-07-29T06:12:26;7.63;;;3.30;;
56893;SDS011;43392;50.078;13.704;2022-07-29T06:14:54;9.18;;;3.03;;
56893;SDS011;43392;50.078;13.704;2022-07-29T06:17:21;10.27;;;2.90;;
56893;SDS011;43392;50.078;13.704;2022-07-29T06:19:48;6.78;;;3.00;;
56893;SDS011;43392;50.078;13.704;2022-07-29T06:22:15;9.20;;;2.95;;
56893;SDS011;43392;50.078;13.704;2022-07-29T06:24:42;9.93;;;2.88;;
56893;SDS011;43392;50.078;13.704;2022-07-29T06:27:09;11.40;;;3.05;;
56893;SDS011;43392;50.078;13.704;2022-07-29T06:29:35;7.72;;;3.05;;
56893;SDS011;43392;50.078;13.704;2022-07-29T06:32:04;10.05;;;3.58;;
56893;SDS011;43392;50.078;13.704;2022-07-29T06:34:31;9.45;;;3.55;;
56893;SDS011;43392;50.078;13.704;2022-07-29T06:36:58;11.30;;;3.75;;
56893;SDS011;43392;50.078;13.704;2022-07-29T06:39:24;8.65;;;3.70;;
56893;SDS011;43392;50.078;13.704;2022-07-29T06:41:51;7.25;;;3.25;;
56893;SDS011;43392;50.078;13.704;2022-07-29T06:44:19;11.63;;;3.40;;
56893;SDS011;43392;50.078;13.704;2022-07-29T06:46:46;8.80;;;3.70;;
56893;SDS011;43392;50.078;13.704;2022-07-29T06:49:15;10.45;;;3.13;;
56893;SDS011;43392;50.078;13.704;2022-07-29T06:51:42;9.60;;;3.63;;
56893;SDS011;43392;50.078;13.704;2022-07-29T06:54:08;12.15;;;3.35;;
56893;SDS011;43392;50.078;13.704;2022-07-29T06:56:35;7.70;;;3.40;;
56893;SDS011;43392;50.078;13.704;2022-07-29T06:59:02;8.73;;;3.15;;
56893;SDS011;43392;50.078;13.704;2022-07-29T07:01:29;15.27;;;3.50;;
56893;SDS011;43392;50.078;13.704;2022-07-29T07:03:55;11.60;;;3.35;;
56893;SDS011;43392;50.078;13.704;2022-07-29T07:06:23;10.07;;;3.55;;
56893;SDS011;43392;50.078;13.704;2022-07-29T07:08:50;9.25;;;3.55;;
56893;SDS011;43392;50.078;13.704;2022-07-29T07:11:17;7.40;;;3.17;;
56893;SDS011;43392;50.078;13.704;2022-07-29T07:13:43;8.88;;;3.10;;
56893;SDS011;43392;50.078;13.704;2022-07-29T07:16:10;12.25;;;3.67;;
56893;SDS011;43392;50.078;13.704;2022-07-29T07:18:36;9.20;;;3.58;;
56893;SDS011;43392;50.078;13.704;2022-07-29T07:21:03;6.97;;;3.08;;
56893;SDS011;43392;50.078;13.704;2022-07-29T07:23:32;11.50;;;4.00;;
56893;SDS011;43392;50.078;13.704;2022-07-29T07:25:58;9.25;;;3.38;;
56893;SDS011;43392;50.078;13.704;2022-07-29T07:28:25;8.38;;;3.63;;
56893;SDS011;43392;50.078;13.704;2022-07-29T07:30:51;9.48;;;3.70;;
56893;SDS011;43392;50.078;13.704;2022-07-29T07:33:18;14.10;;;3.88;;
56893;SDS011;43392;50.078;13.704;2022-07-29T07:35:45;9.52;;;3.38;;
56893;SDS011;43392;50.078;13.704;2022-07-29T07:38:12;11.25;;;4.22;;
56893;SDS011;43392;50.078;13.704;2022-07-29T07:40:40;15.27;;;4.80;;
56893;SDS011;43392;50.078;13.704;2022-07-29T07:43:07;13.63;;;4.63;;
56893;SDS011;43392;50.078;13.704;2022-07-29T07:45:33;13.00;;;4.45;;
56893;SDS011;43392;50.078;13.704;2022-07-29T07:48:02;10.80;;;4.40;;
56893;SDS011;43392;50.078;13.704;2022-07-29T07:50:29;8.70;;;3.97;;
56893;SDS011;43392;50.078;13.704;2022-07-29T07:52:55;9.32;;;3.95;;
56893;SDS011;43392;50.078;13.704;2022-07-29T07:55:23;8.95;;;3.63;;
56893;SDS011;43392;50.078;13.704;2022-07-29T07:57:51;9.40;;;3.70;;
56893;SDS011;43392;50.078;13.704;2022-07-29T08:00:18;9.68;;;3.63;;
56893;SDS011;43392;50.078;13.704;2022-07-29T08:02:45;11.05;;;3.75;;
56893;SDS011;43392;50.078;13.704;2022-07-29T08:05:12;12.35;;;4.13;;
56893;SDS011;43392;50.078;13.704;2022-07-29T08:07:42;9.93;;;3.78;;
56893;SDS011;43392;50.078;13.704;2022-07-29T08:10:09;12.50;;;4.15;;
56893;SDS011;43392;50.078;13.704;2022-07-29T08:12:35;10.90;;;3.95;;
56893;SDS011;43392;50.078;13.704;2022-07-29T08:15:04;10.80;;;3.70;;
56893;SDS011;43392;50.078;13.704;2022-07-29T08:17:32;14.07;;;3.83;;
56893;SDS011;43392;50.078;13.704;2022-07-29T08:19:59;12.02;;;3.97;;
56893;SDS011;43392;50.078;13.704;2022-07-29T08:22:26;6.43;;;2.97;;
56893;SDS011;43392;50.078;13.704;2022-07-29T08:24:52;8.57;;;3.30;;
56893;SDS011;43392;50.078;13.704;2022-07-29T08:27:20;11.23;;;3.00;;
56893;SDS011;43392;50.078;13.704;2022-07-29T08:29:47;8.68;;;3.38;;
56893;SDS011;43392;50.078;13.704;2022-07-29T08:32:15;8.25;;;3.28;;
56893;SDS011;43392;50.078;13.704;2022-07-29T08:34:42;6.63;;;3.20;;
56893;SDS011;43392;50.078;13.704;2022-07-29T08:37:11;11.48;;;3.40;;
56893;SDS011;43392;50.078;13.704;2022-07-29T08:39:38;11.95;;;3.53;;
56893;SDS011;43392;50.078;13.704;2022-07-29T08:42:05;8.77;;;3.10;;
56893;SDS011;43392;50.078;13.704;2022-07-29T08:44:32;7.22;;;3.08;;
56893;SDS011;43392;50.078;13.704;2022-07-29T08:46:59;8.43;;;2.90;;
56893;SDS011;43392;50.078;13.704;2022-07-29T08:49:27;7.07;;;3.17;;
56893;SDS011;43392;50.078;13.704;2022-07-29T08:51:54;10.02;;;3.28;;
56893;SDS011;43392;50.078;13.704;2022-07-29T08:54:22;9.63;;;3.58;;
56893;SDS011;43392;50.078;13.704;2022-07-29T08:56:50;9.38;;;3.20;;
56893;SDS011;43392;50.078;13.704;2022-07-29T08:59:17;9.52;;;3.20;;
56893;SDS011;43392;50.078;13.704;2022-07-29T09:01:45;7.57;;;3.30;;
56893;SDS011;43392;50.078;13.704;2022-07-29T09:04:13;8.07;;;3.20;;
56893;SDS011;43392;50.078;13.704;2022-07-29T09:06:46;7.90;;;3.10;;
56893;SDS011;43392;50.078;13.704;2022-07-29T09:09:15;8.85;;;2.85;;
56893;SDS011;43392;50.078;13.704;2022-07-29T09:11:42;7.80;;;3.10;;
56893;SDS011;43392;50.078;13.704;2022-07-29T09:14:11;6.25;;;2.88;;
56893;SDS011;43392;50.078;13.704;2022-07-29T09:16:48;9.13;;;3.10;;
56893;SDS011;43392;50.078;13.704;2022-07-29T09:19:20;9.48;;;3.00;;
56893;SDS011;43392;50.078;13.704;2022-07-29T09:21:50;8.43;;;3.22;;
56893;SDS011;43392;50.078;13.704;2022-07-29T09:24:26;13.23;;;3.28;;
56893;SDS011;43392;50.078;13.704;2022-07-29T09:27:03;8.35;;;3.08;;
56893;SDS011;43392;50.078;13.704;2022-07-29T09:29:35;10.13;;;3.58;;
56893;SDS011;43392;50.078;13.704;2022-07-29T09:32:02;7.70;;;3.25;;
56893;SDS011;43392;50.078;13.704;2022-07-29T09:34:34;8.15;;;3.10;;
56893;SDS011;43392;50.078;13.704;2022-07-29T09:37:02;6.75;;;3.13;;
56893;SDS011;43392;50.078;13.704;2022-07-29T09:39:30;6.10;;;3.13;;
56893;SDS011;43392;50.078;13.704;2022-07-29T09:41:59;7.85;;;3.33;;
56893;SDS011;43392;50.078;13.704;2022-07-29T09:44:27;6.30;;;3.13;;
56893;SDS011;43392;50.078;13.704;2022-07-29T09:47:07;14.77;;;3.50;;
56893;SDS011;43392;50.078;13.704;2022-07-29T09:49:34;6.57;;;3.55;;
56893;SDS011;43392;50.078;13.704;2022-07-29T09:52:07;6.38;;;2.97;;
56893;SDS011;43392;50.078;13.704;2022-07-29T09:54:36;6.20;;;2.80;;
56893;SDS011;43392;50.078;13.704;2022-07-29T09:57:03;8.43;;;3.17;;
56893;SDS011;43392;50.078;13.704;2022-07-29T09:59:31;7.45;;;3.45;;
56893;SDS011;43392;50.078;13.704;2022-07-29T10:01:58;9.55;;;3.35;;
56893;SDS011;43392;50.078;13.704;2022-07-29T10:04:36;5.95;;;2.78;;
56893;SDS011;43392;50.078;13.704;2022-07-29T10:07:04;7.13;;;3.42;;
56893;SDS011;43392;50.078;13.704;2022-07-29T10:09:32;8.15;;;2.95;;
56893;SDS011;43392;50.078;13.704;2022-07-29T10:14:44;6.15;;;2.70;;
56893;SDS011;43392;50.078;13.704;2022-07-29T10:17:11;7.35;;;3.10;;
56893;SDS011;43392;50.078;13.704;2022-07-29T10:19:38;6.18;;;2.97;;
56893;SDS011;43392;50.078;13.704;2022-07-29T10:22:05;7.65;;;3.25;;
56893;SDS011;43392;50.078;13.704;2022-07-29T10:24:35;5.57;;;2.97;;
56893;SDS011;43392;50.078;13.704;2022-07-29T10:27:03;7.47;;;2.72;;
56893;SDS011;43392;50.078;13.704;2022-07-29T10:29:31;6.18;;;3.28;;
56893;SDS011;43392;50.078;13.704;2022-07-29T10:32:05;6.63;;;3.22;;
56893;SDS011;43392;50.078;13.704;2022-07-29T10:34:44;6.93;;;3.25;;
56893;SDS011;43392;50.078;13.704;2022-07-29T10:37:22;5.97;;;3.00;;
56893;SDS011;43392;50.078;13.704;2022-07-29T10:39:59;8.25;;;3.53;;
56893;SDS011;43392;50.078;13.704;2022-07-29T10:42:48;7.25;;;3.75;;
56893;SDS011;43392;50.078;13.704;2022-07-29T10:45:16;7.65;;;3.75;;
56893;SDS011;43392;50.078;13.704;2022-07-29T10:47:43;10.00;;;4.20;;
56893;SDS011;43392;50.078;13.704;2022-07-29T10:50:11;6.88;;;3.42;;
56893;SDS011;43392;50.078;13.704;2022-07-29T10:52:51;8.13;;;3.40;;
56893;SDS011;43392;50.078;13.704;2022-07-29T10:55:33;9.15;;;3.92;;
56893;SDS011;43392;50.078;13.704;2022-07-29T10:58:14;7.88;;;3.60;;
56893;SDS011;43392;50.078;13.704;2022-07-29T11:03:08;6.72;;;3.65;;
56893;SDS011;43392;50.078;13.704;2022-07-29T11:05:51;7.68;;;3.65;;
56893;SDS011;43392;50.078;13.704;2022-07-29T11:08:19;7.78;;;4.05;;
56893;SDS011;43392;50.078;13.704;2022-07-29T11:10:51;11.82;;;3.42;;
56893;SDS011;43392;50.078;13.704;2022-07-29T11:16:04;4.93;;;3.00;;
56893;SDS011;43392;50.078;13.704;2022-07-29T11:18:31;7.03;;;3.70;;
56893;SDS011;43392;50.078;13.704;2022-07-29T11:20:58;7.60;;;3.53;;
56893;SDS011;43392;50.078;13.704;2022-07-29T11:23:25;7.28;;;3.17;;
56893;SDS011;43392;50.078;13.704;2022-07-29T11:28:50;7.00;;;3.47;;
56893;SDS011;43392;50.078;13.704;2022-07-29T11:31:34;7.75;;;3.05;;
56893;SDS011;43392;50.078;13.704;2022-07-29T11:34:19;10.13;;;3.60;;
56893;SDS011;43392;50.078;13.704;2022-07-29T11:39:47;8.35;;;3.67;;
56893;SDS011;43392;50.078;13.704;2022-07-29T11:42:38;7.05;;;3.20;;
56893;SDS011;43392;50.078;13.704;2022-07-29T11:45:08;8.38;;;3.50;;
56893;SDS011;43392;50.078;13.704;2022-07-29T11:47:36;9.02;;;3.35;;
56893;SDS011;43392;50.078;13.704;2022-07-29T11:50:04;9.07;;;3.38;;
56893;SDS011;43392;50.078;13.704;2022-07-29T11:52:33;6.78;;;3.28;;
56893;SDS011;43392;50.078;13.704;2022-07-29T11:57:31;7.25;;;3.22;;
56893;SDS011;43392;50.078;13.704;2022-07-29T12:00:01;6.55;;;3.42;;
56893;SDS011;43392;50.078;13.704;2022-07-29T12:02:39;8.50;;;3.97;;
56893;SDS011;43392;50.078;13.704;2022-07-29T12:05:08;6.22;;;3.22;;
56893;SDS011;43392;50.078;13.704;2022-07-29T12:07:36;7.47;;;3.67;;
56893;SDS011;43392;50.078;13.704;2022-07-29T12:10:04;10.20;;;3.58;;
56893;SDS011;43392;50.078;13.704;2022-07-29T12:12:32;7.75;;;3.70;;
56893;SDS011;43392;50.078;13.704;2022-07-29T12:15:11;10.07;;;3.55;;
56893;SDS011;43392;50.078;13.704;2022-07-29T12:17:39;8.93;;;3.58;;
56893;SDS011;43392;50.078;13.704;2022-07-29T12:20:05;10.25;;;4.10;;
56893;SDS011;43392;50.078;13.704;2022-07-29T12:22:33;7.68;;;3.53;;
56893;SDS011;43392;50.078;13.704;2022-07-29T12:25:02;7.80;;;3.47;;
56893;SDS011;43392;50.078;13.704;2022-07-29T12:27:30;6.82;;;3.53;;
56893;SDS011;43392;50.078;13.704;2022-07-29T12:29:58;8.63;;;3.90;;
56893;SDS011;43392;50.078;13.704;2022-07-29T12:32:31;7.13;;;3.42;;
56893;SDS011;43392;50.078;13.704;2022-07-29T12:34:59;5.10;;;3.28;;
56893;SDS011;43392;50.078;13.704;2022-07-29T12:37:28;7.47;;;3.30;;
56893;SDS011;43392;50.078;13.704;2022-07-29T12:39:55;7.18;;;3.47;;
56893;SDS011;43392;50.078;13.704;2022-07-29T12:42:21;9.57;;;3.80;;
56893;SDS011;43392;50.078;13.704;2022-07-29T12:44:49;8.27;;;3.78;;
56893;SDS011;43392;50.078;13.704;2022-07-29T12:47:16;7.18;;;3.85;;
56893;SDS011;43392;50.078;13.704;2022-07-29T12:49:45;6.63;;;3.35;;
56893;SDS011;43392;50.078;13.704;2022-07-29T12:52:26;6.57;;;3.33;;
56893;SDS011;43392;50.078;13.704;2022-07-29T12:54:54;5.25;;;3.25;;
56893;SDS011;43392;50.078;13.704;2022-07-29T12:57:21;9.48;;;3.95;;
56893;SDS011;43392;50.078;13.704;2022-07-29T12:59:59;5.03;;;3.03;;
56893;SDS011;43392;50.078;13.704;2022-07-29T13:02:36;4.93;;;3.00;;
56893;SDS011;43392;50.078;13.704;2022-07-29T13:05:05;6.28;;;3.75;;
56893;SDS011;43392;50.078;13.704;2022-07-29T13:07:33;5.65;;;3.50;;
56893;SDS011;43392;50.078;13.704;2022-07-29T13:10:11;6.03;;;3.40;;
56893;SDS011;43392;50.078;13.704;2022-07-29T13:15:28;6.43;;;3.70;;
56893;SDS011;43392;50.078;13.704;2022-07-29T13:17:55;5.85;;;3.63;;
56893;SDS011;43392;50.078;13.704;2022-07-29T13:20:24;6.45;;;3.45;;
56893;SDS011;43392;50.078;13.704;2022-07-29T13:22:54;7.75;;;3.90;;
56893;SDS011;43392;50.078;13.704;2022-07-29T13:25:24;7.68;;;3.97;;
56893;SDS011;43392;50.078;13.704;2022-07-29T13:27:52;7.05;;;3.75;;
56893;SDS011;43392;50.078;13.704;2022-07-29T13:30:20;8.90;;;3.90;;
56893;SDS011;43392;50.078;13.704;2022-07-29T13:32:48;7.60;;;3.90;;
56893;SDS011;43392;50.078;13.704;2022-07-29T13:35:14;8.00;;;3.78;;
56893;SDS011;43392;50.078;13.704;2022-07-29T13:37:42;6.97;;;3.53;;
56893;SDS011;43392;50.078;13.704;2022-07-29T13:40:09;8.77;;;4.13;;
56893;SDS011;43392;50.078;13.704;2022-07-29T13:42:37;8.50;;;4.07;;
56893;SDS011;43392;50.078;13.704;2022-07-29T13:45:04;6.53;;;3.50;;
56893;SDS011;43392;50.078;13.704;2022-07-29T13:47:32;8.07;;;3.60;;
56893;SDS011;43392;50.078;13.704;2022-07-29T13:49:59;6.13;;;3.50;;
56893;SDS011;43392;50.078;13.704;2022-07-29T13:52:25;6.18;;;3.75;;
56893;SDS011;43392;50.078;13.704;2022-07-29T13:54:53;7.07;;;3.63;;
56893;SDS011;43392;50.078;13.704;2022-07-29T13:57:20;7.13;;;3.85;;
56893;SDS011;43392;50.078;13.704;2022-07-29T13:59:47;7.32;;;3.70;;
56893;SDS011;43392;50.078;13.704;2022-07-29T14:02:13;8.98;;;3.65;;
56893;SDS011;43392;50.078;13.704;2022-07-29T14:04:40;7.93;;;3.85;;
56893;SDS011;43392;50.078;13.704;2022-07-29T14:07:07;9.23;;;3.60;;
56893;SDS011;43392;50.078;13.704;2022-07-29T14:09:33;7.47;;;3.65;;
56893;SDS011;43392;50.078;13.704;2022-07-29T14:12:01;6.40;;;3.83;;
56893;SDS011;43392;50.078;13.704;2022-07-29T14:14:28;6.43;;;3.80;;
56893;SDS011;43392;50.078;13.704;2022-07-29T14:16:56;7.20;;;3.72;;
56893;SDS011;43392;50.078;13.704;2022-07-29T14:19:23;8.05;;;3.70;;
56893;SDS011;43392;50.078;13.704;2022-07-29T14:21:49;7.53;;;3.50;;
56893;SDS011;43392;50.078;13.704;2022-07-29T14:24:16;5.35;;;3.55;;
56893;SDS011;43392;50.078;13.704;2022-07-29T14:26:42;7.85;;;3.88;;
56893;SDS011;43392;50.078;13.704;2022-07-29T14:29:10;7.22;;;3.42;;
56893;SDS011;43392;50.078;13.704;2022-07-29T14:31:37;7.25;;;3.45;;
56893;SDS011;43392;50.078;13.704;2022-07-29T14:34:04;7.38;;;3.72;;
56893;SDS011;43392;50.078;13.704;2022-07-29T14:36:30;7.22;;;3.58;;
56893;SDS011;43392;50.078;13.704;2022-07-29T14:38:57;6.72;;;3.58;;
56893;SDS011;43392;50.078;13.704;2022-07-29T14:41:23;7.15;;;4.00;;
56893;SDS011;43392;50.078;13.704;2022-07-29T14:43:53;5.87;;;3.60;;
56893;SDS011;43392;50.078;13.704;2022-07-29T14:46:21;8.32;;;3.47;;
56893;SDS011;43392;50.078;13.704;2022-07-29T14:48:47;7.28;;;3.42;;
56893;SDS011;43392;50.078;13.704;2022-07-29T14:51:14;7.72;;;3.75;;
56893;SDS011;43392;50.078;13.704;2022-07-29T14:53:41;6.72;;;3.67;;
56893;SDS011;43392;50.078;13.704;2022-07-29T14:56:08;9.18;;;3.95;;
56893;SDS011;43392;50.078;13.704;2022-07-29T14:58:35;7.60;;;4.10;;
56893;SDS011;43392;50.078;13.704;2022-07-29T15:01:02;7.72;;;4.00;;